createdAt,value
2023-05-06T00:01:17.920Z,19.15
2023-05-06T00:03:44.600Z,19.14
2023-05-06T00:08:55.136Z,19.09
2023-05-06T00:11:21.500Z,19.08
2023-05-06T00:13:47.820Z,19.09
2023-05-06T00:16:15.073Z,19.09
2023-05-06T00:18:41.464Z,19.10
2023-05-06T00:24:01.753Z,19.07
2023-05-06T00:26:28.115Z,19.05
2023-05-06T00:28:54.426Z,19.07
2023-05-06T00:31:20.839Z,19.06
2023-05-06T00:33:47.172Z,19.03
2023-05-06T00:36:13.691Z,19.07
2023-05-06T00:38:40.021Z,19.03
2023-05-06T00:41:06.345Z,19.05
2023-05-06T00:43:32.671Z,19.02
2023-05-06T00:45:59.056Z,19.03
2023-05-06T00:48:25.414Z,19.01
2023-05-06T00:50:51.749Z,19.04
2023-05-06T00:53:18.123Z,19.00
2023-05-06T00:55:44.453Z,19.00
2023-05-06T00:58:10.792Z,18.98
2023-05-06T01:00:37.115Z,18.95
2023-05-06T01:03:03.541Z,18.91
2023-05-06T01:05:29.930Z,18.93
2023-05-06T01:07:56.266Z,18.98
2023-05-06T01:10:22.596Z,18.94
2023-05-06T01:12:48.991Z,18.93
2023-05-06T01:15:15.350Z,18.91
2023-05-06T01:17:41.712Z,18.94
2023-05-06T01:20:08.087Z,18.97
2023-05-06T01:22:34.428Z,18.95
2023-05-06T01:25:00.753Z,18.96
2023-05-06T01:27:27.094Z,18.92
2023-05-06T01:29:53.450Z,18.92
2023-05-06T01:32:19.876Z,18.91
2023-05-06T01:34:46.222Z,18.95
2023-05-06T01:37:12.564Z,18.91
2023-05-06T01:42:22.830Z,18.92
2023-05-06T01:44:49.184Z,18.91
2023-05-06T01:47:15.549Z,18.89
2023-05-06T01:49:41.903Z,18.87
2023-05-06T01:52:09.122Z,18.86
2023-05-06T01:57:19.660Z,18.84
2023-05-06T01:59:46.033Z,18.86
2023-05-06T02:02:13.245Z,18.79
2023-05-06T02:04:39.576Z,18.81
2023-05-06T02:07:05.936Z,18.81
2023-05-06T02:12:16.292Z,18.84
2023-05-06T02:14:42.622Z,18.82
2023-05-06T02:17:09.004Z,18.81
2023-05-06T02:19:35.322Z,18.80
2023-05-06T02:22:01.686Z,18.80
2023-05-06T02:27:11.803Z,18.77
2023-05-06T02:29:38.128Z,18.82
2023-05-06T02:32:04.472Z,18.77
2023-05-06T02:34:30.834Z,18.78
2023-05-06T02:36:57.165Z,18.80
2023-05-06T02:42:07.589Z,18.78
2023-05-06T02:44:33.943Z,18.76
2023-05-06T02:47:00.295Z,18.77
2023-05-06T02:49:26.621Z,18.77
2023-05-06T02:51:53.007Z,18.73
2023-05-06T02:57:03.191Z,18.77
2023-05-06T02:59:29.517Z,18.77
2023-05-06T03:01:55.859Z,18.76
2023-05-06T03:04:22.306Z,18.72
2023-05-06T03:06:48.722Z,18.72
2023-05-06T03:11:58.790Z,18.72
2023-05-06T03:14:25.144Z,18.72
2023-05-06T03:16:51.595Z,18.74
2023-05-06T03:19:18.042Z,18.73
2023-05-06T03:21:44.452Z,18.71
2023-05-06T03:24:10.831Z,18.71
2023-05-06T03:26:37.176Z,18.71
2023-05-06T03:29:03.542Z,18.77
2023-05-06T03:31:29.925Z,18.83
2023-05-06T03:33:56.285Z,18.82
2023-05-06T03:36:22.582Z,18.76
2023-05-06T03:38:48.922Z,18.73
2023-05-06T03:41:15.298Z,18.74
2023-05-06T03:43:41.647Z,18.76
2023-05-06T03:46:08.051Z,18.73
2023-05-06T03:48:34.427Z,18.71
2023-05-06T03:51:00.799Z,18.69
2023-05-06T03:53:27.112Z,18.71
2023-05-06T03:55:53.454Z,18.71
2023-05-06T03:58:19.819Z,18.71
2023-05-06T04:00:46.158Z,18.71
2023-05-06T04:03:12.645Z,18.71
2023-05-06T04:05:39.153Z,18.72
2023-05-06T04:08:05.456Z,18.73
2023-05-06T04:10:31.787Z,18.72
2023-05-06T04:12:58.187Z,18.73
2023-05-06T04:15:24.547Z,18.77
2023-05-06T04:17:50.957Z,18.73
2023-05-06T04:20:17.398Z,18.73
2023-05-06T04:22:43.759Z,18.70
2023-05-06T04:25:10.382Z,18.72
2023-05-06T04:30:20.642Z,18.72
2023-05-06T04:32:47.091Z,18.71
2023-05-06T04:35:13.462Z,18.69
2023-05-06T04:37:39.824Z,18.71
2023-05-06T04:40:06.259Z,18.71
2023-05-06T04:45:16.634Z,18.70
2023-05-06T04:47:43.051Z,18.70
2023-05-06T04:50:09.496Z,18.72
2023-05-06T04:52:35.863Z,18.72
2023-05-06T04:55:02.233Z,18.74
2023-05-06T05:00:41.498Z,18.79
2023-05-06T05:03:07.934Z,18.78
2023-05-06T05:05:34.433Z,18.78
2023-05-06T05:08:00.751Z,18.78
2023-05-06T05:10:27.094Z,18.88
2023-05-06T05:15:37.585Z,18.78
2023-05-06T05:18:04.133Z,18.72
2023-05-06T05:20:30.477Z,18.75
2023-05-06T05:22:56.854Z,18.81
2023-05-06T05:25:23.339Z,18.90
2023-05-06T05:30:34.485Z,19.06
2023-05-06T05:33:00.939Z,18.99
2023-05-06T05:35:28.270Z,19.12
2023-05-06T05:37:54.655Z,19.10
2023-05-06T05:40:21.095Z,19.13
2023-05-06T05:45:32.553Z,19.22
2023-05-06T05:47:59.868Z,19.18
2023-05-06T05:50:26.578Z,19.13
2023-05-06T05:52:53.073Z,19.26
2023-05-06T05:55:19.554Z,19.22
2023-05-06T06:00:30.281Z,19.27
2023-05-06T06:02:56.858Z,19.17
2023-05-06T06:05:23.365Z,19.24
2023-05-06T06:07:50.692Z,19.17
2023-05-06T06:10:17.119Z,19.31
2023-05-06T06:15:27.673Z,19.32
2023-05-06T06:17:55.012Z,19.36
2023-05-06T06:20:21.523Z,19.36
2023-05-06T06:22:48.847Z,19.38
2023-05-06T06:25:15.319Z,19.41
2023-05-06T06:30:27.050Z,19.40
2023-05-06T06:32:54.145Z,19.44
2023-05-06T06:35:20.909Z,19.43
2023-05-06T06:37:47.539Z,19.47
2023-05-06T06:40:17.001Z,19.51
2023-05-06T06:42:43.755Z,19.53
2023-05-06T06:45:11.651Z,19.53
2023-05-06T06:47:39.447Z,19.52
2023-05-06T06:50:06.078Z,19.46
2023-05-06T06:52:35.312Z,19.45
2023-05-06T06:55:02.914Z,19.42
2023-05-06T06:57:30.396Z,19.46
2023-05-06T06:59:57.164Z,19.44
2023-05-06T07:02:25.761Z,19.31
2023-05-06T07:04:52.452Z,19.33
2023-05-06T07:07:19.063Z,19.42
2023-05-06T07:09:48.108Z,19.35
2023-05-06T07:12:15.315Z,18.75
2023-05-06T07:14:41.672Z,18.41
2023-05-06T07:17:08.085Z,18.22
2023-05-06T07:19:34.494Z,18.05
2023-05-06T07:22:00.840Z,18.14
2023-05-06T07:24:27.318Z,18.17
2023-05-06T07:26:53.707Z,18.04
2023-05-06T07:29:20.058Z,18.11
2023-05-06T07:31:46.451Z,17.95
2023-05-06T07:34:12.819Z,17.62
2023-05-06T07:36:40.111Z,17.96
2023-05-06T07:39:06.687Z,18.41
2023-05-06T07:41:34.105Z,18.64
2023-05-06T07:44:00.566Z,18.74
2023-05-06T07:46:28.945Z,18.67
2023-05-06T07:48:56.233Z,18.71
2023-05-06T07:51:22.727Z,18.70
2023-05-06T07:53:49.087Z,18.78
2023-05-06T07:56:15.563Z,18.83
2023-05-06T07:58:42.887Z,18.93
2023-05-06T08:03:53.349Z,18.86
2023-05-06T08:06:19.745Z,18.87
2023-05-06T08:08:46.350Z,18.84
2023-05-06T08:11:12.738Z,18.88
2023-05-06T08:13:39.050Z,18.89
2023-05-06T08:18:49.367Z,18.88
2023-05-06T08:21:15.738Z,18.92
2023-05-06T08:23:42.242Z,18.99
2023-05-06T08:26:09.572Z,19.11
2023-05-06T08:28:35.979Z,19.13
2023-05-06T08:33:55.966Z,19.36
2023-05-06T08:36:22.400Z,19.41
2023-05-06T08:38:48.762Z,19.44
2023-05-06T08:41:15.987Z,19.48
2023-05-06T08:43:42.319Z,19.52
2023-05-06T08:48:52.515Z,19.54
2023-05-06T08:51:18.864Z,19.57
2023-05-06T08:53:45.253Z,19.49
2023-05-06T08:56:11.599Z,19.45
2023-05-06T08:58:37.905Z,19.46
2023-05-06T09:03:58.476Z,19.02
2023-05-06T09:06:24.798Z,19.13
2023-05-06T09:08:51.139Z,19.18
2023-05-06T09:11:17.494Z,19.14
2023-05-06T09:13:43.859Z,19.26
2023-05-06T09:18:54.246Z,19.43
2023-05-06T09:21:20.610Z,19.40
2023-05-06T09:23:46.940Z,19.03
2023-05-06T09:26:13.262Z,18.89
2023-05-06T09:28:39.589Z,19.06
2023-05-06T09:33:49.626Z,19.11
2023-05-06T09:36:16.013Z,19.03
2023-05-06T09:38:42.372Z,19.07
2023-05-06T09:41:08.752Z,18.24
2023-05-06T09:43:35.098Z,17.13
2023-05-06T09:48:45.147Z,16.65
2023-05-06T09:51:12.371Z,16.50
2023-05-06T09:53:38.697Z,16.52
2023-05-06T09:56:05.371Z,17.22
2023-05-06T09:58:31.731Z,18.14
2023-05-06T10:00:58.087Z,18.37
2023-05-06T10:03:24.532Z,18.43
2023-05-06T10:05:50.958Z,18.49
2023-05-06T10:08:17.339Z,18.58
2023-05-06T10:10:43.705Z,18.63
2023-05-06T10:13:10.077Z,18.71
2023-05-06T10:15:36.497Z,18.76
2023-05-06T10:18:02.924Z,18.78
2023-05-06T10:20:29.314Z,18.76
2023-05-06T10:22:55.662Z,18.73
2023-05-06T10:25:22.003Z,18.70
2023-05-06T10:27:48.348Z,18.72
2023-05-06T10:30:15.276Z,18.71
2023-05-06T10:32:41.718Z,18.75
2023-05-06T10:35:08.198Z,18.78
2023-05-06T10:37:34.631Z,18.77
2023-05-06T10:40:00.979Z,18.74
2023-05-06T10:42:27.317Z,18.77
2023-05-06T10:44:53.656Z,18.79
2023-05-06T10:47:20.083Z,18.81
2023-05-06T10:49:46.426Z,18.82
2023-05-06T10:52:12.794Z,18.77
2023-05-06T10:54:39.127Z,18.76
2023-05-06T10:57:05.495Z,18.80
2023-05-06T10:59:31.802Z,18.81
2023-05-06T11:01:58.123Z,18.84
2023-05-06T11:07:19.113Z,18.09
2023-05-06T11:09:45.454Z,18.10
2023-05-06T11:12:11.800Z,17.83
2023-05-06T11:14:38.199Z,17.48
2023-05-06T11:17:04.645Z,17.78
2023-05-06T11:22:15.225Z,18.00
2023-05-06T11:24:41.569Z,18.09
2023-05-06T11:27:07.918Z,18.16
2023-05-06T11:29:34.231Z,18.13
2023-05-06T11:32:00.630Z,18.12
2023-05-06T11:37:20.973Z,18.18
2023-05-06T11:39:47.342Z,18.16
2023-05-06T11:42:13.828Z,18.14
2023-05-06T11:44:40.346Z,18.17
2023-05-06T11:47:06.852Z,18.19
2023-05-06T11:52:18.314Z,17.67
2023-05-06T11:54:44.639Z,17.90
2023-05-06T11:57:11.003Z,17.97
2023-05-06T11:59:37.470Z,17.80
2023-05-06T12:02:03.978Z,17.34
2023-05-06T12:07:24.272Z,18.39
2023-05-06T12:09:50.789Z,18.48
2023-05-06T12:12:17.157Z,18.53
2023-05-06T12:14:43.528Z,18.61
2023-05-06T12:17:09.876Z,18.64
2023-05-06T12:22:20.015Z,18.18
2023-05-06T12:24:46.385Z,18.16
2023-05-06T12:27:12.749Z,18.02
2023-05-06T12:29:39.059Z,18.09
2023-05-06T12:32:05.431Z,18.41
2023-05-06T12:37:16.476Z,18.64
2023-05-06T12:39:42.836Z,18.70
2023-05-06T12:42:09.191Z,18.72
2023-05-06T12:44:35.500Z,18.75
2023-05-06T12:47:01.844Z,18.75
2023-05-06T12:52:12.113Z,18.77
2023-05-06T12:54:38.448Z,18.77
2023-05-06T12:57:04.789Z,18.80
2023-05-06T12:59:31.122Z,18.86
2023-05-06T13:01:57.441Z,18.86
2023-05-06T13:07:17.649Z,18.89
2023-05-06T13:09:44.085Z,18.92
2023-05-06T13:12:10.603Z,18.90
2023-05-06T13:14:39.882Z,18.91
2023-05-06T13:17:07.023Z,18.90
2023-05-06T13:22:17.554Z,18.97
2023-05-06T13:24:44.011Z,19.01
2023-05-06T13:27:10.541Z,19.00
2023-05-06T13:29:37.806Z,19.07
2023-05-06T13:32:06.295Z,19.05
2023-05-06T13:34:35.146Z,19.02
2023-05-06T13:37:01.664Z,18.99
2023-05-06T13:39:28.253Z,18.99
2023-05-06T13:41:54.771Z,18.98
2023-05-06T13:44:21.590Z,18.97
2023-05-06T13:46:48.964Z,18.97
2023-05-06T13:49:16.412Z,18.99
2023-05-06T13:51:42.992Z,19.00
2023-05-06T13:54:12.985Z,19.00
2023-05-06T13:56:39.547Z,18.98
2023-05-06T13:59:07.045Z,18.98
2023-05-06T14:01:34.929Z,18.96
2023-05-06T14:04:01.512Z,18.93
2023-05-06T14:06:28.969Z,18.91
2023-05-06T14:08:55.450Z,18.92
2023-05-06T14:11:22.831Z,18.90
2023-05-06T14:13:49.327Z,18.90
2023-05-06T14:16:15.930Z,18.93
2023-05-06T14:18:43.485Z,18.95
2023-05-06T14:21:10.894Z,18.95
2023-05-06T14:23:37.457Z,18.95
2023-05-06T14:26:04.800Z,18.95
2023-05-06T14:28:31.282Z,18.99
2023-05-06T14:30:57.793Z,18.98
2023-05-06T14:33:25.078Z,18.99
2023-05-06T14:35:52.513Z,19.00
2023-05-06T14:38:19.991Z,19.01
2023-05-06T14:40:46.532Z,18.99
2023-05-06T14:43:12.992Z,19.00
2023-05-06T14:45:40.318Z,19.01
2023-05-06T14:48:06.878Z,19.02
2023-05-06T14:50:33.423Z,19.04
2023-05-06T14:55:44.175Z,19.05
2023-05-06T14:58:11.570Z,19.04
2023-05-06T15:00:39.023Z,19.02
2023-05-06T15:03:05.487Z,19.06
2023-05-06T15:05:32.129Z,19.02
2023-05-06T15:10:42.536Z,18.98
2023-05-06T15:13:09.809Z,18.94
2023-05-06T15:15:39.775Z,18.92
2023-05-06T15:18:08.988Z,18.91
2023-05-06T15:20:35.408Z,18.90
2023-05-06T15:25:46.048Z,18.93
2023-05-06T15:28:13.299Z,18.92
2023-05-06T15:30:39.657Z,18.89
2023-05-06T15:33:06.968Z,18.88
2023-05-06T15:35:33.360Z,18.88
2023-05-06T15:40:43.699Z,18.86
2023-05-06T15:43:10.428Z,18.88
2023-05-06T15:45:37.534Z,18.86
2023-05-06T15:48:04.005Z,18.86
2023-05-06T15:50:33.847Z,18.87
2023-05-06T15:55:56.220Z,18.83
2023-05-06T15:58:23.512Z,18.83
2023-05-06T16:00:49.864Z,18.82
2023-05-06T16:03:16.398Z,18.81
2023-05-06T16:05:42.830Z,18.79
2023-05-06T16:10:53.071Z,18.83
2023-05-06T16:13:19.470Z,18.80
2023-05-06T16:15:45.944Z,18.81
2023-05-06T16:18:13.231Z,18.83
2023-05-06T16:20:39.622Z,18.77
2023-05-06T16:25:49.881Z,18.81
2023-05-06T16:28:16.197Z,18.79
2023-05-06T16:30:42.586Z,18.79
2023-05-06T16:33:09.005Z,18.80
2023-05-06T16:35:35.377Z,18.79
2023-05-06T16:40:45.546Z,18.79
2023-05-06T16:43:11.896Z,18.77
2023-05-06T16:45:38.274Z,18.78
2023-05-06T16:48:04.775Z,18.78
2023-05-06T16:50:31.254Z,18.77
2023-05-06T16:55:42.545Z,18.77
2023-05-06T16:58:09.780Z,18.77
2023-05-06T17:00:36.194Z,18.76
2023-05-06T17:03:02.615Z,18.76
2023-05-06T17:05:29.078Z,18.73
2023-05-06T17:07:55.441Z,18.76
2023-05-06T17:10:21.786Z,18.77
2023-05-06T17:12:48.203Z,18.76
2023-05-06T17:15:14.597Z,18.76
2023-05-06T17:17:41.001Z,18.77
2023-05-06T17:20:07.422Z,18.72
2023-05-06T17:22:34.637Z,18.75
2023-05-06T17:25:01.034Z,18.73
2023-05-06T17:27:27.388Z,18.74
2023-05-06T17:29:54.651Z,18.75
2023-05-06T17:32:21.081Z,18.73
2023-05-06T17:34:47.470Z,18.74
2023-05-06T17:37:13.856Z,18.73
2023-05-06T17:39:40.198Z,18.74
2023-05-06T17:42:06.589Z,18.72
2023-05-06T17:44:32.966Z,18.71
2023-05-06T17:46:59.477Z,18.71
2023-05-06T17:49:25.948Z,18.75
2023-05-06T17:51:52.291Z,18.74
2023-05-06T17:54:18.664Z,18.72
2023-05-06T17:56:45.125Z,18.72
2023-05-06T17:59:11.544Z,18.72
2023-05-06T18:01:37.973Z,18.72
2023-05-06T18:04:04.418Z,18.73
2023-05-06T18:06:30.816Z,18.73
2023-05-06T18:08:57.156Z,18.73
2023-05-06T18:14:07.356Z,18.73
2023-05-06T18:16:33.770Z,18.69
2023-05-06T18:19:00.190Z,18.71
2023-05-06T18:21:26.587Z,18.67
2023-05-06T18:23:56.120Z,18.71
2023-05-06T18:29:13.575Z,18.71
2023-05-06T18:31:39.971Z,18.74
2023-05-06T18:34:06.393Z,18.73
2023-05-06T18:36:33.693Z,18.76
2023-05-06T18:39:00.149Z,18.78
2023-05-06T18:44:11.726Z,18.79
2023-05-06T18:46:39.189Z,18.81
2023-05-06T18:49:05.660Z,18.80
2023-05-06T18:51:32.137Z,18.82
2023-05-06T18:53:59.759Z,18.86
2023-05-06T18:59:11.169Z,18.81
2023-05-06T19:01:38.459Z,18.82
2023-05-06T19:04:05.357Z,18.84
2023-05-06T19:06:33.721Z,18.83
2023-05-06T19:09:00.163Z,18.82
2023-05-06T19:14:14.026Z,18.82
2023-05-06T19:16:40.506Z,18.80
2023-05-06T19:19:07.294Z,18.79
2023-05-06T19:21:33.818Z,18.82
2023-05-06T19:24:00.287Z,18.84
2023-05-06T19:29:12.293Z,18.79
2023-05-06T19:31:38.849Z,18.81
2023-05-06T19:34:06.153Z,18.81
2023-05-06T19:36:35.343Z,18.78
2023-05-06T19:39:01.808Z,18.77
2023-05-06T19:44:12.193Z,18.78
2023-05-06T19:46:40.552Z,18.76
2023-05-06T19:49:07.821Z,18.75
2023-05-06T19:51:34.269Z,18.74
2023-05-06T19:54:01.508Z,18.76
2023-05-06T19:59:13.610Z,18.73
2023-05-06T20:01:39.990Z,18.75
2023-05-06T20:04:07.375Z,18.75
2023-05-06T20:06:33.745Z,18.78
2023-05-06T20:09:00.162Z,18.77
2023-05-06T20:14:11.420Z,18.84
2023-05-06T20:16:37.929Z,18.91
2023-05-06T20:19:04.455Z,18.90
2023-05-06T20:21:30.940Z,18.87
2023-05-06T20:23:57.418Z,18.88
2023-05-06T20:26:25.052Z,18.89
2023-05-06T20:28:51.608Z,18.93
2023-05-06T20:31:18.998Z,18.94
2023-05-06T20:33:45.547Z,18.96
2023-05-06T20:36:12.959Z,18.96
2023-05-06T20:38:39.412Z,18.94
2023-05-06T20:41:05.870Z,18.97
2023-05-06T20:43:32.334Z,18.98
2023-05-06T20:45:59.824Z,18.99
2023-05-06T20:48:27.246Z,19.00
2023-05-06T20:50:53.707Z,19.02
2023-05-06T20:53:20.181Z,18.97
2023-05-06T20:55:47.635Z,18.94
2023-05-06T20:58:14.140Z,18.91
2023-05-06T21:00:41.395Z,18.89
2023-05-06T21:03:09.771Z,18.87
2023-05-06T21:05:36.322Z,18.84
2023-05-06T21:08:02.804Z,18.86
2023-05-06T21:10:30.053Z,18.86
2023-05-06T21:12:58.463Z,18.84
2023-05-06T21:15:25.737Z,18.84
2023-05-06T21:17:52.296Z,18.82
2023-05-06T21:20:18.780Z,18.81
2023-05-06T21:22:46.013Z,18.79
2023-05-06T21:25:13.522Z,18.80
2023-05-06T21:27:39.963Z,18.83
2023-05-06T21:30:06.376Z,18.80
2023-05-06T21:32:32.957Z,18.77
2023-05-06T21:34:59.621Z,18.79
2023-05-06T21:37:26.028Z,18.80
2023-05-06T21:39:52.374Z,18.77
2023-05-06T21:42:18.759Z,18.77
2023-05-06T21:47:40.077Z,18.79
2023-05-06T21:50:06.532Z,18.77
2023-05-06T21:52:32.897Z,18.78
2023-05-06T21:54:59.274Z,18.76
2023-05-06T21:57:25.605Z,18.78
2023-05-06T22:02:36.168Z,18.76
2023-05-06T22:05:04.538Z,18.73
2023-05-06T22:07:30.932Z,18.72
2023-05-06T22:09:57.273Z,18.69
2023-05-06T22:12:23.651Z,18.66
2023-05-06T22:17:44.051Z,18.66
2023-05-06T22:20:10.400Z,18.64
2023-05-06T22:22:36.768Z,18.65
2023-05-06T22:25:03.110Z,18.64
2023-05-06T22:27:29.476Z,18.64
2023-05-06T22:32:39.944Z,18.64
2023-05-06T22:35:06.389Z,18.62
2023-05-06T22:37:32.760Z,18.65
2023-05-06T22:39:59.093Z,18.65
2023-05-06T22:42:25.406Z,18.60
2023-05-06T22:47:45.478Z,18.59
2023-05-06T22:50:11.854Z,18.56
2023-05-06T22:52:38.205Z,18.58
2023-05-06T22:55:04.604Z,18.59
2023-05-06T22:57:31.064Z,18.60
2023-05-06T23:02:41.156Z,18.60
2023-05-06T23:05:07.544Z,18.61
2023-05-06T23:07:33.894Z,18.60
2023-05-06T23:10:00.239Z,18.66
2023-05-06T23:12:26.574Z,18.63
2023-05-06T23:17:46.869Z,18.62
2023-05-06T23:20:13.230Z,18.60
2023-05-06T23:22:39.565Z,18.62
2023-05-06T23:25:05.910Z,18.61
2023-05-06T23:27:32.268Z,18.62
2023-05-06T23:32:42.374Z,18.60
2023-05-06T23:35:08.900Z,18.63
2023-05-06T23:37:35.382Z,18.61
2023-05-06T23:40:01.722Z,18.61
2023-05-06T23:42:28.079Z,18.57
2023-05-06T23:47:38.292Z,18.59
2023-05-06T23:50:04.731Z,18.60
2023-05-06T23:52:31.105Z,18.59
2023-05-06T23:54:57.436Z,18.58
2023-05-06T23:57:23.780Z,18.61
2023-05-06T23:59:50.111Z,18.58
